Lanesboro, Iowa
Current Conditions -  °F | °C
As of 12:15 PM on Friday 24 Oct 2014 (Local Time) from KCIN Reporting Station
Overcast Overcast  
Wind Chill: 66°   Ceiling: 1400
Heat Index: 66°   Visibility: 8mi
Dew Point: 59°   Wind: 13mph
Humidity: 78%   Direction: 240°WSW
Pressure: 29.92"   Gusts: NA
Location:  42.18°N, 94.69°W
Report Text: KCIN 241715Z AUTO 24011KT 8SM OVC014 19/15 A2992 RMK AO2
Loading
Personal Weather Stations






























Interactive Weather Map
Tropical Storm Tracking
New forecast layout! Learn more

10-Day Weather Forecast

Advertisements
Track Severe Weather on mobile